Maltby, Washington
Current Conditions -  °F | °C
As of 4:53 AM on Saturday 20 Dec 2014 (Local Time) from KPAE Reporting Station
Light Rain Light Rain  
Wind Chill: 40°   Ceiling: 7000
Heat Index: 45°   Visibility: 10mi
Dew Point: 38°   Wind: 9mph
Humidity: 76%   Direction: 150°SSE
Pressure: 29.69"   Gusts: 21mph
Location:  47.9468°N, 122.012°W
Report Text: KPAE 201253Z AUTO 15008G18KT 10SM -RA OVC070 07/03 A2969 RMK AO2 RAB36 SLP056 P0000 T00720033
Loading
Personal Weather Stations






























Interactive Weather Map New forecast layout! Learn more

10-Day Weather Forecast

Advertisements
Track Severe Weather on mobile